sensor_id;sensor_type;location;lat;lon;timestamp;pressure;altitude;pressure_sealevel;temperature;humidity
68889;BME280;55930;47.412;8.790;2023-01-27T00:02:24;94547.25;;;-2.27;100.00
68889;BME280;55930;47.412;8.790;2023-01-27T00:05:45;94552.47;;;-2.38;100.00
68889;BME280;55930;47.412;8.790;2023-01-27T00:09:06;94552.13;;;-2.40;100.00
68889;BME280;55930;47.412;8.790;2023-01-27T00:12:26;94553.19;;;-2.34;100.00
68889;BME280;55930;47.412;8.790;2023-01-27T00:16:06;94552.50;;;-2.49;100.00
68889;BME280;55930;47.412;8.790;2023-01-27T00:19:28;94552.09;;;-2.47;100.00
68889;BME280;55930;47.412;8.790;2023-01-27T00:22:49;94549.88;;;-2.42;100.00
68889;BME280;55930;47.412;8.790;2023-01-27T00:26:28;94545.78;;;-2.32;100.00
68889;BME280;55930;47.412;8.790;2023-01-27T00:29:48;94552.47;;;-2.35;100.00
68889;BME280;55930;47.412;8.790;2023-01-27T00:33:11;94544.69;;;-2.42;100.00
68889;BME280;55930;47.412;8.790;2023-01-27T00:36:44;94540.59;;;-2.43;100.00
68889;BME280;55930;47.412;8.790;2023-01-27T00:40:08;94543.56;;;-2.41;100.00
68889;BME280;55930;47.412;8.790;2023-01-27T00:43:29;94549.50;;;-2.40;100.00
68889;BME280;55930;47.412;8.790;2023-01-27T00:46:49;94541.72;;;-2.40;100.00
68889;BME280;55930;47.412;8.790;2023-01-27T00:50:10;94525.78;;;-2.42;100.00
68889;BME280;55930;47.412;8.790;2023-01-27T00:53:30;94535.72;;;-2.30;100.00
68889;BME280;55930;47.412;8.790;2023-01-27T00:56:51;94537.25;;;-2.36;100.00
68889;BME280;55930;47.412;8.790;2023-01-27T01:00:12;94540.59;;;-2.46;100.00
68889;BME280;55930;47.412;8.790;2023-01-27T01:03:35;94540.25;;;-2.48;100.00
68889;BME280;55930;47.412;8.790;2023-01-27T01:06:58;94543.94;;;-2.46;100.00
68889;BME280;55930;47.412;8.790;2023-01-27T01:10:18;94535.81;;;-2.48;100.00
68889;BME280;55930;47.412;8.790;2023-01-27T01:13:40;94531.72;;;-2.49;100.00
68889;BME280;55930;47.412;8.790;2023-01-27T01:17:00;94544.31;;;-2.44;100.00
68889;BME280;55930;47.412;8.790;2023-01-27T01:20:21;94545.78;;;-2.39;100.00
68889;BME280;55930;47.412;8.790;2023-01-27T01:23:43;94536.53;;;-2.51;100.00
68889;BME280;55930;47.412;8.790;2023-01-27T01:27:06;94549.50;;;-2.47;100.00
68889;BME280;55930;47.412;8.790;2023-01-27T01:30:27;94548.03;;;-2.45;100.00
68889;BME280;55930;47.412;8.790;2023-01-27T01:33:50;94545.06;;;-2.43;100.00
68889;BME280;55930;47.412;8.790;2023-01-27T01:37:11;94538.78;;;-2.49;100.00
68889;BME280;55930;47.412;8.790;2023-01-27T01:40:32;94525.78;;;-2.49;100.00
68889;BME280;55930;47.412;8.790;2023-01-27T01:43:52;94529.84;;;-2.45;100.00
68889;BME280;55930;47.412;8.790;2023-01-27T01:47:15;94529.13;;;-2.49;100.00
68889;BME280;55930;47.412;8.790;2023-01-27T01:50:37;94530.22;;;-2.46;100.00
68889;BME280;55930;47.412;8.790;2023-01-27T01:54:14;94526.91;;;-2.57;100.00
68889;BME280;55930;47.412;8.790;2023-01-27T01:57:36;94514.66;;;-2.53;100.00
68889;BME280;55930;47.412;8.790;2023-01-27T02:00:56;94513.16;;;-2.47;100.00
68889;BME280;55930;47.412;8.790;2023-01-27T02:04:19;94509.44;;;-2.46;100.00
68889;BME280;55930;47.412;8.790;2023-01-27T02:07:56;94495.34;;;-2.45;100.00
68889;BME280;55930;47.412;8.790;2023-01-27T02:11:17;94490.91;;;-2.41;100.00
68889;BME280;55930;47.412;8.790;2023-01-27T02:14:39;94490.91;;;-2.48;100.00
68889;BME280;55930;47.412;8.790;2023-01-27T02:18:00;94500.16;;;-2.44;100.00
68889;BME280;55930;47.412;8.790;2023-01-27T02:21:21;94504.97;;;-2.39;100.00
68889;BME280;55930;47.412;8.790;2023-01-27T02:24:46;94498.66;;;-2.34;100.00
68889;BME280;55930;47.412;8.790;2023-01-27T02:28:11;94499.44;;;-2.41;100.00
68889;BME280;55930;47.412;8.790;2023-01-27T02:31:31;94499.06;;;-2.43;100.00
68889;BME280;55930;47.412;8.790;2023-01-27T02:34:54;94501.66;;;-2.43;100.00
68889;BME280;55930;47.412;8.790;2023-01-27T02:38:16;94507.97;;;-2.47;100.00
68889;BME280;55930;47.412;8.790;2023-01-27T02:41:39;94498.31;;;-2.40;100.00
68889;BME280;55930;47.412;8.790;2023-01-27T02:45:01;94489.78;;;-2.47;100.00
68889;BME280;55930;47.412;8.790;2023-01-27T02:48:22;94491.28;;;-2.53;100.00
68889;BME280;55930;47.412;8.790;2023-01-27T02:51:45;94484.22;;;-2.46;100.00
68889;BME280;55930;47.412;8.790;2023-01-27T02:55:05;94499.41;;;-2.37;100.00
68889;BME280;55930;47.412;8.790;2023-01-27T02:58:26;94490.16;;;-2.45;100.00
68889;BME280;55930;47.412;8.790;2023-01-27T03:01:46;94489.78;;;-2.44;100.00
68889;BME280;55930;47.412;8.790;2023-01-27T03:05:07;94486.44;;;-2.44;100.00
68889;BME280;55930;47.412;8.790;2023-01-27T03:08:28;94489.00;;;-2.37;100.00
68889;BME280;55930;47.412;8.790;2023-01-27T03:11:48;94474.19;;;-2.47;100.00
68889;BME280;55930;47.412;8.790;2023-01-27T03:15:29;94470.88;;;-2.55;100.00
68889;BME280;55930;47.412;8.790;2023-01-27T03:19:10;94476.09;;;-2.48;100.00
68889;BME280;55930;47.412;8.790;2023-01-27T03:22:31;94489.06;;;-2.48;100.00
68889;BME280;55930;47.412;8.790;2023-01-27T03:25:51;94482.34;;;-2.45;100.00
68889;BME280;55930;47.412;8.790;2023-01-27T03:29:14;94478.28;;;-2.43;100.00
68889;BME280;55930;47.412;8.790;2023-01-27T03:32:53;94473.81;;;-2.42;100.00
68889;BME280;55930;47.412;8.790;2023-01-27T03:36:13;94474.56;;;-2.42;100.00
68889;BME280;55930;47.412;8.790;2023-01-27T03:39:52;94469.38;;;-2.45;100.00
68889;BME280;55930;47.412;8.790;2023-01-27T03:43:31;94470.88;;;-2.48;100.00
68889;BME280;55930;47.412;8.790;2023-01-27T03:47:10;94464.94;;;-2.48;100.00
68889;BME280;55930;47.412;8.790;2023-01-27T03:50:33;94470.13;;;-2.45;100.00
68889;BME280;55930;47.412;8.790;2023-01-27T03:54:02;94472.34;;;-2.47;100.00
68889;BME280;55930;47.412;8.790;2023-01-27T03:57:25;94479.03;;;-2.42;100.00
68889;BME280;55930;47.412;8.790;2023-01-27T04:00:49;94474.19;;;-2.40;100.00
68889;BME280;55930;47.412;8.790;2023-01-27T04:04:17;94481.97;;;-2.37;100.00
68889;BME280;55930;47.412;8.790;2023-01-27T04:07:56;94479.06;;;-2.49;100.00
68889;BME280;55930;47.412;8.790;2023-01-27T04:11:16;94488.31;;;-2.48;100.00
68889;BME280;55930;47.412;8.790;2023-01-27T04:14:55;94488.66;;;-2.46;100.00
68889;BME280;55930;47.412;8.790;2023-01-27T04:18:16;94499.44;;;-2.55;100.00
68889;BME280;55930;47.412;8.790;2023-01-27T04:21:39;94496.84;;;-2.48;100.00
68889;BME280;55930;47.412;8.790;2023-01-27T04:24:59;94479.38;;;-2.47;100.00
68889;BME280;55930;47.412;8.790;2023-01-27T04:28:20;94479.03;;;-2.42;100.00
68889;BME280;55930;47.412;8.790;2023-01-27T04:31:40;94484.59;;;-2.40;100.00
68889;BME280;55930;47.412;8.790;2023-01-27T04:35:01;94477.94;;;-2.55;100.00
68889;BME280;55930;47.412;8.790;2023-01-27T04:38:21;94476.44;;;-2.46;100.00
68889;BME280;55930;47.412;8.790;2023-01-27T04:41:44;94463.84;;;-2.51;100.00
68889;BME280;55930;47.412;8.790;2023-01-27T04:45:05;94481.63;;;-2.46;100.00
68889;BME280;55930;47.412;8.790;2023-01-27T04:48:26;94471.59;;;-2.44;100.00
68889;BME280;55930;47.412;8.790;2023-01-27T04:51:49;94459.75;;;-2.48;100.00
68889;BME280;55930;47.412;8.790;2023-01-27T04:55:10;94458.63;;;-2.47;100.00
68889;BME280;55930;47.412;8.790;2023-01-27T04:58:31;94468.59;;;-2.35;100.00
68889;BME280;55930;47.412;8.790;2023-01-27T05:01:51;94473.09;;;-2.46;100.00
68889;BME280;55930;47.412;8.790;2023-01-27T05:05:12;94461.19;;;-2.37;100.00
68889;BME280;55930;47.412;8.790;2023-01-27T05:08:32;94476.06;;;-2.41;100.00
68889;BME280;55930;47.412;8.790;2023-01-27T05:11:53;94475.72;;;-2.53;100.00
68889;BME280;55930;47.412;8.790;2023-01-27T05:15:13;94466.41;;;-2.44;100.00
68889;BME280;55930;47.412;8.790;2023-01-27T05:18:34;94465.31;;;-2.50;100.00
68889;BME280;55930;47.412;8.790;2023-01-27T05:21:57;94477.16;;;-2.42;100.00
68889;BME280;55930;47.412;8.790;2023-01-27T05:25:17;94476.44;;;-2.49;100.00
68889;BME280;55930;47.412;8.790;2023-01-27T05:28:40;94474.56;;;-2.42;100.00
68889;BME280;55930;47.412;8.790;2023-01-27T05:32:01;94466.06;;;-2.49;100.00
68889;BME280;55930;47.412;8.790;2023-01-27T05:35:21;94471.59;;;-2.44;100.00
68889;BME280;55930;47.412;8.790;2023-01-27T05:38:45;94484.63;;;-2.54;100.00
68889;BME280;55930;47.412;8.790;2023-01-27T05:42:06;94486.03;;;-2.39;100.00
68889;BME280;55930;47.412;8.790;2023-01-27T05:45:27;94471.97;;;-2.45;100.00
68889;BME280;55930;47.412;8.790;2023-01-27T05:48:49;94476.44;;;-2.46;100.00
68889;BME280;55930;47.412;8.790;2023-01-27T05:52:10;94483.81;;;-2.37;100.00
68889;BME280;55930;47.412;8.790;2023-01-27T05:55:30;94481.59;;;-2.39;100.00
68889;BME280;55930;47.412;8.790;2023-01-27T05:58:55;94479.75;;;-2.42;100.00
68889;BME280;55930;47.412;8.790;2023-01-27T06:02:16;94475.69;;;-2.43;100.00
68889;BME280;55930;47.412;8.790;2023-01-27T06:05:36;94475.34;;;-2.48;100.00
68889;BME280;55930;47.412;8.790;2023-01-27T06:08:57;94479.41;;;-2.51;100.00
68889;BME280;55930;47.412;8.790;2023-01-27T06:12:20;94485.75;;;-2.59;100.00
68889;BME280;55930;47.412;8.790;2023-01-27T06:15:45;94486.09;;;-2.50;100.00
68889;BME280;55930;47.412;8.790;2023-01-27T06:19:06;94493.50;;;-2.48;100.00
68889;BME280;55930;47.412;8.790;2023-01-27T06:22:26;94499.06;;;-2.53;100.00
68889;BME280;55930;47.412;8.790;2023-01-27T06:25:47;94505.00;;;-2.49;100.00
68889;BME280;55930;47.412;8.790;2023-01-27T06:29:08;94502.06;;;-2.58;100.00
68889;BME280;55930;47.412;8.790;2023-01-27T06:32:34;94507.25;;;-2.51;100.00
68889;BME280;55930;47.412;8.790;2023-01-27T06:36:06;94505.03;;;-2.56;100.00
68889;BME280;55930;47.412;8.790;2023-01-27T06:39:27;94499.88;;;-2.63;100.00
68889;BME280;55930;47.412;8.790;2023-01-27T06:42:50;94515.78;;;-2.61;100.00
68889;BME280;55930;47.412;8.790;2023-01-27T06:46:10;94517.63;;;-2.62;100.00
68889;BME280;55930;47.412;8.790;2023-01-27T06:49:31;94511.31;;;-2.54;100.00
68889;BME280;55930;47.412;8.790;2023-01-27T06:53:11;94527.28;;;-2.62;100.00
68889;BME280;55930;47.412;8.790;2023-01-27T06:56:53;94538.41;;;-2.58;100.00
68889;BME280;55930;47.412;8.790;2023-01-27T07:00:16;94538.78;;;-2.60;100.00
68889;BME280;55930;47.412;8.790;2023-01-27T07:03:37;94544.72;;;-2.59;100.00
68889;BME280;55930;47.412;8.790;2023-01-27T07:07:00;94535.44;;;-2.57;100.00
68889;BME280;55930;47.412;8.790;2023-01-27T07:10:21;94550.63;;;-2.55;100.00
68889;BME280;55930;47.412;8.790;2023-01-27T07:13:42;94540.63;;;-2.53;100.00
68889;BME280;55930;47.412;8.790;2023-01-27T07:17:02;94537.69;;;-2.59;100.00
68889;BME280;55930;47.412;8.790;2023-01-27T07:20:23;94552.13;;;-2.61;100.00
68889;BME280;55930;47.412;8.790;2023-01-27T07:23:47;94542.88;;;-2.59;100.00
68889;BME280;55930;47.412;8.790;2023-01-27T07:27:07;94557.31;;;-2.44;100.00
68889;BME280;55930;47.412;8.790;2023-01-27T07:30:29;94551.38;;;-2.41;100.00
68889;BME280;55930;47.412;8.790;2023-01-27T07:33:49;94553.59;;;-2.43;100.00
68889;BME280;55930;47.412;8.790;2023-01-27T07:37:12;94561.03;;;-2.52;100.00
68889;BME280;55930;47.412;8.790;2023-01-27T07:40:32;94558.03;;;-2.40;100.00
68889;BME280;55930;47.412;8.790;2023-01-27T07:43:53;94560.25;;;-2.35;100.00
68889;BME280;55930;47.412;8.790;2023-01-27T07:47:15;94560.25;;;-2.35;100.00
68889;BME280;55930;47.412;8.790;2023-01-27T07:50:38;94564.69;;;-2.39;100.00
68889;BME280;55930;47.412;8.790;2023-01-27T07:53:59;94559.91;;;-2.44;100.00
68889;BME280;55930;47.412;8.790;2023-01-27T07:57:20;94569.91;;;-2.39;100.00
68889;BME280;55930;47.412;8.790;2023-01-27T08:00:40;94561.00;;;-2.38;100.00
68889;BME280;55930;47.412;8.790;2023-01-27T08:04:00;94560.63;;;-2.36;100.00
68889;BME280;55930;47.412;8.790;2023-01-27T08:07:21;94570.28;;;-2.37;100.00
68889;BME280;55930;47.412;8.790;2023-01-27T08:10:42;94571.75;;;-2.39;100.00
68889;BME280;55930;47.412;8.790;2023-01-27T08:14:08;94573.97;;;-2.27;100.00
68889;BME280;55930;47.412;8.790;2023-01-27T08:17:28;94574.31;;;-2.21;100.00
68889;BME280;55930;47.412;8.790;2023-01-27T08:20:49;94571.34;;;-2.31;100.00
68889;BME280;55930;47.412;8.790;2023-01-27T08:24:14;94569.16;;;-2.36;100.00
68889;BME280;55930;47.412;8.790;2023-01-27T08:27:34;94563.97;;;-2.32;100.00
68889;BME280;55930;47.412;8.790;2023-01-27T08:31:02;94564.31;;;-2.26;100.00
68889;BME280;55930;47.412;8.790;2023-01-27T08:34:25;94582.84;;;-2.21;100.00
68889;BME280;55930;47.412;8.790;2023-01-27T08:37:48;94585.84;;;-2.33;100.00
68889;BME280;55930;47.412;8.790;2023-01-27T08:41:17;94580.66;;;-2.33;100.00
68889;BME280;55930;47.412;8.790;2023-01-27T08:44:38;94574.34;;;-2.28;100.00
68889;BME280;55930;47.412;8.790;2023-01-27T08:47:58;94586.19;;;-2.17;100.00
68889;BME280;55930;47.412;8.790;2023-01-27T08:51:19;94585.06;;;-2.16;100.00
68889;BME280;55930;47.412;8.790;2023-01-27T08:54:39;94586.22;;;-2.24;100.00
68889;BME280;55930;47.412;8.790;2023-01-27T08:58:02;94592.06;;;-2.06;100.00
68889;BME280;55930;47.412;8.790;2023-01-27T09:01:22;94587.25;;;-2.04;100.00
68889;BME280;55930;47.412;8.790;2023-01-27T09:04:43;94593.19;;;-2.07;100.00
68889;BME280;55930;47.412;8.790;2023-01-27T09:08:04;94590.59;;;-2.07;100.00
68889;BME280;55930;47.412;8.790;2023-01-27T09:11:24;94602.09;;;-2.01;100.00
68889;BME280;55930;47.412;8.790;2023-01-27T09:14:45;94605.03;;;-1.92;100.00
68889;BME280;55930;47.412;8.790;2023-01-27T09:18:05;94596.09;;;-1.90;100.00
68889;BME280;55930;47.412;8.790;2023-01-27T09:21:26;94605.78;;;-1.98;100.00
68889;BME280;55930;47.412;8.790;2023-01-27T09:24:46;94599.91;;;-2.16;100.00
68889;BME280;55930;47.412;8.790;2023-01-27T09:28:07;94605.09;;;-2.13;100.00
68889;BME280;55930;47.412;8.790;2023-01-27T09:31:35;94611.41;;;-2.14;100.00
68889;BME280;55930;47.412;8.790;2023-01-27T09:34:56;94611.38;;;-2.00;100.00
68889;BME280;55930;47.412;8.790;2023-01-27T09:38:19;94609.91;;;-2.01;100.00
68889;BME280;55930;47.412;8.790;2023-01-27T10:12:02;94607.06;;;-1.44;100.00
68889;BME280;55930;47.412;8.790;2023-01-27T10:18:45;94596.25;;;-1.39;100.00
68889;BME280;55930;47.412;8.790;2023-01-27T10:22:22;94595.34;;;-1.11;100.00
68889;BME280;55930;47.412;8.790;2023-01-27T10:25:52;94593.41;;;-1.00;100.00
68889;BME280;55930;47.412;8.790;2023-01-27T10:29:23;94595.03;;;-1.20;100.00
68889;BME280;55930;47.412;8.790;2023-01-27T10:32:48;94598.34;;;-1.12;100.00
68889;BME280;55930;47.412;8.790;2023-01-27T10:36:40;94597.25;;;-1.19;100.00
68889;BME280;55930;47.412;8.790;2023-01-27T10:48:17;94587.66;;;-0.77;100.00
68889;BME280;55930;47.412;8.790;2023-01-27T10:51:50;94588.53;;;-0.94;100.00
68889;BME280;55930;47.412;8.790;2023-01-27T10:55:16;94595.91;;;-0.86;100.00
68889;BME280;55930;47.412;8.790;2023-01-27T11:02:29;94603.00;;;-0.90;100.00
68889;BME280;55930;47.412;8.790;2023-01-27T11:05:53;94602.72;;;-1.02;100.00
68889;BME280;55930;47.412;8.790;2023-01-27T11:09:33;94595.31;;;-1.07;100.00
68889;BME280;55930;47.412;8.790;2023-01-27T11:12:55;94597.22;;;-1.15;100.00
68889;BME280;55930;47.412;8.790;2023-01-27T11:16:20;94589.09;;;-1.21;98.91
68889;BME280;55930;47.412;8.790;2023-01-27T11:20:04;94595.53;;;-0.88;98.35
68889;BME280;55930;47.412;8.790;2023-01-27T11:23:40;94596.66;;;-0.85;97.79
68889;BME280;55930;47.412;8.790;2023-01-27T11:38:24;94600.50;;;-0.56;97.54
68889;BME280;55930;47.412;8.790;2023-01-27T11:41:51;94606.44;;;-0.55;97.36
68889;BME280;55930;47.412;8.790;2023-01-27T11:45:16;94593.34;;;-0.45;95.50
68889;BME280;55930;47.412;8.790;2023-01-27T11:48:41;94600.53;;;-0.59;94.51
68889;BME280;55930;47.412;8.790;2023-01-27T11:52:10;94596.84;;;-0.62;96.63
68889;BME280;55930;47.412;8.790;2023-01-27T11:55:44;94584.19;;;-0.63;97.02
68889;BME280;55930;47.412;8.790;2023-01-27T11:59:24;94599.06;;;-0.64;96.95
68889;BME280;55930;47.412;8.790;2023-01-27T12:02:51;94592.50;;;-0.75;97.61
68889;BME280;55930;47.412;8.790;2023-01-27T12:06:20;94585.66;;;-1.10;98.12
68889;BME280;55930;47.412;8.790;2023-01-27T12:09:46;94578.59;;;-1.10;97.83
68889;BME280;55930;47.412;8.790;2023-01-27T12:13:17;94586.59;;;-0.83;97.69
68889;BME280;55930;47.412;8.790;2023-01-27T12:16:46;94583.94;;;-0.80;97.14
68889;BME280;55930;47.412;8.790;2023-01-27T12:23:51;94580.22;;;-0.79;96.45
68889;BME280;55930;47.412;8.790;2023-01-27T12:27:39;94574.91;;;-1.12;97.15
68889;BME280;55930;47.412;8.790;2023-01-27T12:31:12;94568.94;;;-1.09;98.10
68889;BME280;55930;47.412;8.790;2023-01-27T12:34:36;94571.09;;;-1.01;97.13
68889;BME280;55930;47.412;8.790;2023-01-27T12:41:32;94572.59;;;-1.00;95.62
68889;BME280;55930;47.412;8.790;2023-01-27T12:44:55;94567.44;;;-1.07;96.45
68889;BME280;55930;47.412;8.790;2023-01-27T12:48:19;94576.00;;;-1.06;97.01
68889;BME280;55930;47.412;8.790;2023-01-27T12:51:42;94575.41;;;-1.28;98.76
68889;BME280;55930;47.412;8.790;2023-01-27T12:55:26;94567.66;;;-1.39;98.94
68889;BME280;55930;47.412;8.790;2023-01-27T13:05:40;94566.78;;;-1.22;100.00
68889;BME280;55930;47.412;8.790;2023-01-27T13:09:02;94568.88;;;-1.02;99.94
68889;BME280;55930;47.412;8.790;2023-01-27T13:12:27;94564.03;;;-1.00;99.48
68889;BME280;55930;47.412;8.790;2023-01-27T13:19:29;94569.03;;;-1.24;98.91
68889;BME280;55930;47.412;8.790;2023-01-27T13:26:27;94587.84;;;-1.64;100.00
68889;BME280;55930;47.412;8.790;2023-01-27T13:29:55;94581.78;;;-1.43;100.00
68889;BME280;55930;47.412;8.790;2023-01-27T13:33:42;94591.94;;;-1.67;100.00
68889;BME280;55930;47.412;8.790;2023-01-27T13:40:42;94595.34;;;-1.77;100.00
68889;BME280;55930;47.412;8.790;2023-01-27T13:47:48;94590.88;;;-1.76;100.00
68889;BME280;55930;47.412;8.790;2023-01-27T13:51:17;94585.25;;;-1.64;100.00
68889;BME280;55930;47.412;8.790;2023-01-27T13:54:38;94590.13;;;-1.80;100.00
68889;BME280;55930;47.412;8.790;2023-01-27T14:09:00;94602.06;;;-1.90;100.00
68889;BME280;55930;47.412;8.790;2023-01-27T14:16:46;94606.56;;;-2.01;100.00
68889;BME280;55930;47.412;8.790;2023-01-27T14:27:36;94605.84;;;-2.09;100.00
68889;BME280;55930;47.412;8.790;2023-01-27T14:31:08;94605.44;;;-2.04;100.00
68889;BME280;55930;47.412;8.790;2023-01-27T14:34:53;94618.41;;;-1.97;100.00
68889;BME280;55930;47.412;8.790;2023-01-27T14:38:30;94615.09;;;-2.04;100.00
68889;BME280;55930;47.412;8.790;2023-01-27T14:42:04;94608.78;;;-2.03;100.00
68889;BME280;55930;47.412;8.790;2023-01-27T14:45:33;94630.34;;;-2.13;100.00
68889;BME280;55930;47.412;8.790;2023-01-27T14:49:15;94625.91;;;-2.20;100.00
68889;BME280;55930;47.412;8.790;2023-01-27T15:06:27;94634.44;;;-2.09;100.00
68889;BME280;55930;47.412;8.790;2023-01-27T15:10:04;94643.00;;;-2.26;100.00
68889;BME280;55930;47.412;8.790;2023-01-27T15:21:16;94645.53;;;-2.15;100.00
68889;BME280;55930;47.412;8.790;2023-01-27T15:28:12;94650.00;;;-2.23;100.00
68889;BME280;55930;47.412;8.790;2023-01-27T15:31:33;94645.94;;;-2.20;100.00
68889;BME280;55930;47.412;8.790;2023-01-27T15:42:51;94661.91;;;-2.25;100.00
68889;BME280;55930;47.412;8.790;2023-01-27T15:49:58;94671.56;;;-2.29;100.00
68889;BME280;55930;47.412;8.790;2023-01-27T15:56:51;94681.19;;;-2.23;100.00
68889;BME280;55930;47.412;8.790;2023-01-27T16:00:26;94683.44;;;-2.25;100.00
68889;BME280;55930;47.412;8.790;2023-01-27T16:03:48;94683.44;;;-2.32;100.00
68889;BME280;55930;47.412;8.790;2023-01-27T16:07:21;94683.78;;;-2.30;100.00
68889;BME280;55930;47.412;8.790;2023-01-27T16:10:44;94689.38;;;-2.35;100.00
68889;BME280;55930;47.412;8.790;2023-01-27T16:17:32;94693.44;;;-2.27;100.00
68889;BME280;55930;47.412;8.790;2023-01-27T16:21:00;94699.41;;;-2.26;100.00
68889;BME280;55930;47.412;8.790;2023-01-27T16:24:42;94707.56;;;-2.24;100.00
68889;BME280;55930;47.412;8.790;2023-01-27T16:28:26;94706.81;;;-2.39;100.00
68889;BME280;55930;47.412;8.790;2023-01-27T16:31:52;94698.63;;;-2.31;100.00
68889;BME280;55930;47.412;8.790;2023-01-27T16:35:17;94712.75;;;-2.28;100.00
68889;BME280;55930;47.412;8.790;2023-01-27T16:38:41;94705.34;;;-2.40;100.00
68889;BME280;55930;47.412;8.790;2023-01-27T16:42:03;94709.78;;;-2.34;100.00
68889;BME280;55930;47.412;8.790;2023-01-27T16:45:27;94702.34;;;-2.39;100.00
68889;BME280;55930;47.412;8.790;2023-01-27T16:48:50;94706.09;;;-2.33;100.00
68889;BME280;55930;47.412;8.790;2023-01-27T16:52:19;94696.81;;;-2.41;100.00
68889;BME280;55930;47.412;8.790;2023-01-27T16:55:41;94714.22;;;-2.20;100.00
68889;BME280;55930;47.412;8.790;2023-01-27T16:59:07;94705.72;;;-2.35;100.00
68889;BME280;55930;47.412;8.790;2023-01-27T17:02:30;94709.78;;;-2.41;100.00
68889;BME280;55930;47.412;8.790;2023-01-27T17:05:52;94707.53;;;-2.39;100.00
68889;BME280;55930;47.412;8.790;2023-01-27T17:09:25;94716.09;;;-2.27;100.00
68889;BME280;55930;47.412;8.790;2023-01-27T17:12:49;94717.94;;;-2.39;100.00
68889;BME280;55930;47.412;8.790;2023-01-27T17:16:28;94714.97;;;-2.37;100.00
68889;BME280;55930;47.412;8.790;2023-01-27T17:19:53;94712.38;;;-2.44;100.00
68889;BME280;55930;47.412;8.790;2023-01-27T17:23:24;94717.56;;;-2.44;100.00
68889;BME280;55930;47.412;8.790;2023-01-27T17:26:55;94721.28;;;-2.45;100.00
68889;BME280;55930;47.412;8.790;2023-01-27T17:30:23;94720.19;;;-2.48;100.00
68889;BME280;55930;47.412;8.790;2023-01-27T17:33:48;94723.13;;;-2.39;100.00
68889;BME280;55930;47.412;8.790;2023-01-27T17:37:20;94725.38;;;-2.48;100.00
68889;BME280;55930;47.412;8.790;2023-01-27T17:40:43;94726.84;;;-2.43;100.00
68889;BME280;55930;47.412;8.790;2023-01-27T17:44:12;94732.03;;;-2.43;100.00
68889;BME280;55930;47.412;8.790;2023-01-27T17:47:33;94736.13;;;-2.42;100.00
68889;BME280;55930;47.412;8.790;2023-01-27T17:50:56;94731.69;;;-2.49;100.00
68889;BME280;55930;47.412;8.790;2023-01-27T17:54:34;94740.22;;;-2.48;100.00
68889;BME280;55930;47.412;8.790;2023-01-27T17:58:03;94733.50;;;-2.53;100.00
68889;BME280;55930;47.412;8.790;2023-01-27T18:01:24;94739.44;;;-2.45;100.00
68889;BME280;55930;47.412;8.790;2023-01-27T18:04:44;94739.84;;;-2.40;100.00
68889;BME280;55930;47.412;8.790;2023-01-27T18:08:05;94742.78;;;-2.38;100.00
68889;BME280;55930;47.412;8.790;2023-01-27T18:11:28;94748.38;;;-2.36;100.00
68889;BME280;55930;47.412;8.790;2023-01-27T18:14:52;94750.22;;;-2.43;100.00
68889;BME280;55930;47.412;8.790;2023-01-27T18:21:42;94760.59;;;-2.50;100.00
68889;BME280;55930;47.412;8.790;2023-01-27T18:25:15;94756.16;;;-2.43;100.00
68889;BME280;55930;47.412;8.790;2023-01-27T18:28:37;94764.31;;;-2.44;100.00
68889;BME280;55930;47.412;8.790;2023-01-27T18:32:07;94762.09;;;-2.42;100.00
68889;BME280;55930;47.412;8.790;2023-01-27T18:35:35;94763.22;;;-2.40;100.00
68889;BME280;55930;47.412;8.790;2023-01-27T18:38:55;94769.88;;;-2.42;100.00
68889;BME280;55930;47.412;8.790;2023-01-27T18:42:20;94777.31;;;-2.37;100.00
68889;BME280;55930;47.412;8.790;2023-01-27T18:45:42;94776.19;;;-2.36;100.00
68889;BME280;55930;47.412;8.790;2023-01-27T18:49:07;94786.22;;;-2.35;100.00
68889;BME280;55930;47.412;8.790;2023-01-27T18:52:29;94793.66;;;-2.40;100.00
68889;BME280;55930;47.412;8.790;2023-01-27T18:55:52;94794.38;;;-2.43;100.00
68889;BME280;55930;47.412;8.790;2023-01-27T18:59:12;94791.03;;;-2.37;100.00
68889;BME280;55930;47.412;8.790;2023-01-27T19:02:35;94792.16;;;-2.41;100.00
68889;BME280;55930;47.412;8.790;2023-01-27T19:05:56;94786.59;;;-2.40;100.00
68889;BME280;55930;47.412;8.790;2023-01-27T19:09:19;94783.25;;;-2.37;100.00
68889;BME280;55930;47.412;8.790;2023-01-27T19:12:40;94793.66;;;-2.40;100.00
68889;BME280;55930;47.412;8.790;2023-01-27T19:16:03;94792.53;;;-2.36;100.00
68889;BME280;55930;47.412;8.790;2023-01-27T19:19:30;94797.69;;;-2.46;100.00
68889;BME280;55930;47.412;8.790;2023-01-27T19:22:52;94801.44;;;-2.37;100.00
68889;BME280;55930;47.412;8.790;2023-01-27T19:26:22;94792.88;;;-2.44;100.00
68889;BME280;55930;47.412;8.790;2023-01-27T19:29:43;94799.56;;;-2.43;100.00
68889;BME280;55930;47.412;8.790;2023-01-27T19:33:17;94797.34;;;-2.48;100.00
68889;BME280;55930;47.412;8.790;2023-01-27T19:36:42;94798.06;;;-2.44;100.00
68889;BME280;55930;47.412;8.790;2023-01-27T19:40:14;94804.03;;;-2.37;100.00
68889;BME280;55930;47.412;8.790;2023-01-27T19:43:35;94797.34;;;-2.31;100.00
68889;BME280;55930;47.412;8.790;2023-01-27T19:46:55;94802.56;;;-2.34;100.00
68889;BME280;55930;47.412;8.790;2023-01-27T19:50:25;94801.06;;;-2.35;100.00
68889;BME280;55930;47.412;8.790;2023-01-27T19:53:46;94808.84;;;-2.35;100.00
68889;BME280;55930;47.412;8.790;2023-01-27T19:57:12;94811.47;;;-2.35;100.00
68889;BME280;55930;47.412;8.790;2023-01-27T20:00:35;94807.75;;;-2.31;100.00
68889;BME280;55930;47.412;8.790;2023-01-27T20:03:58;94805.53;;;-2.32;100.00
68889;BME280;55930;47.412;8.790;2023-01-27T20:07:21;94814.06;;;-2.32;100.00
68889;BME280;55930;47.412;8.790;2023-01-27T20:10:43;94808.84;;;-2.35;100.00
68889;BME280;55930;47.412;8.790;2023-01-27T20:14:14;94810.34;;;-2.31;100.00
68889;BME280;55930;47.412;8.790;2023-01-27T20:17:35;94804.06;;;-2.26;100.00
68889;BME280;55930;47.412;8.790;2023-01-27T20:20:56;94811.47;;;-2.32;100.00
68889;BME280;55930;47.412;8.790;2023-01-27T20:24:17;94812.94;;;-2.27;100.00
68889;BME280;55930;47.412;8.790;2023-01-27T20:27:38;94805.13;;;-2.31;100.00